sensor_id;sensor_type;location;lat;lon;timestamp;P1;durP1;ratioP1;P2;durP2;ratioP2
70165;SDS011;57541;47.408;18.822;2022-10-18T00:00:30;19.80;;;12.18;;
70165;SDS011;57541;47.408;18.822;2022-10-18T00:01:02;23.58;;;13.70;;
70165;SDS011;57541;47.408;18.822;2022-10-18T00:01:35;23.23;;;13.40;;
70165;SDS011;57541;47.408;18.822;2022-10-18T00:02:06;20.70;;;13.02;;
70165;SDS011;57541;47.408;18.822;2022-10-18T00:02:38;23.38;;;13.73;;
70165;SDS011;57541;47.408;18.822;2022-10-18T00:03:09;20.15;;;13.27;;
70165;SDS011;57541;47.408;18.822;2022-10-18T00:03:41;20.67;;;12.88;;
70165;SDS011;57541;47.408;18.822;2022-10-18T00:04:17;21.92;;;12.63;;
70165;SDS011;57541;47.408;18.822;2022-10-18T00:04:49;21.33;;;12.77;;
70165;SDS011;57541;47.408;18.822;2022-10-18T00:05:21;21.83;;;13.18;;
70165;SDS011;57541;47.408;18.822;2022-10-18T00:05:52;21.17;;;13.18;;
70165;SDS011;57541;47.408;18.822;2022-10-18T00:06:24;21.63;;;13.13;;
70165;SDS011;57541;47.408;18.822;2022-10-18T00:06:55;25.00;;;13.15;;
70165;SDS011;57541;47.408;18.822;2022-10-18T00:07:27;20.15;;;12.30;;
70165;SDS011;57541;47.408;18.822;2022-10-18T00:07:59;22.20;;;13.70;;
70165;SDS011;57541;47.408;18.822;2022-10-18T00:08:31;22.63;;;12.88;;
70165;SDS011;57541;47.408;18.822;2022-10-18T00:09:03;20.77;;;13.07;;
70165;SDS011;57541;47.408;18.822;2022-10-18T00:09:34;20.67;;;13.13;;
70165;SDS011;57541;47.408;18.822;2022-10-18T00:10:06;21.40;;;12.85;;
70165;SDS011;57541;47.408;18.822;2022-10-18T00:10:38;21.45;;;12.90;;
70165;SDS011;57541;47.408;18.822;2022-10-18T00:11:10;22.88;;;12.98;;
70165;SDS011;57541;47.408;18.822;2022-10-18T00:11:41;23.40;;;13.20;;
70165;SDS011;57541;47.408;18.822;2022-10-18T00:12:13;22.30;;;13.07;;
70165;SDS011;57541;47.408;18.822;2022-10-18T00:12:45;22.65;;;12.57;;
70165;SDS011;57541;47.408;18.822;2022-10-18T00:13:21;19.83;;;12.65;;
70165;SDS011;57541;47.408;18.822;2022-10-18T00:13:54;20.63;;;12.90;;
70165;SDS011;57541;47.408;18.822;2022-10-18T00:14:26;22.60;;;13.35;;
70165;SDS011;57541;47.408;18.822;2022-10-18T00:14:58;21.52;;;12.98;;
70165;SDS011;57541;47.408;18.822;2022-10-18T00:15:29;23.27;;;13.55;;
70165;SDS011;57541;47.408;18.822;2022-10-18T00:16:01;21.95;;;13.15;;
70165;SDS011;57541;47.408;18.822;2022-10-18T00:16:34;22.05;;;12.90;;
70165;SDS011;57541;47.408;18.822;2022-10-18T00:17:05;23.48;;;13.77;;
70165;SDS011;57541;47.408;18.822;2022-10-18T00:17:37;22.08;;;13.40;;
70165;SDS011;57541;47.408;18.822;2022-10-18T00:18:09;20.25;;;12.75;;
70165;SDS011;57541;47.408;18.822;2022-10-18T00:18:41;20.50;;;12.90;;
70165;SDS011;57541;47.408;18.822;2022-10-18T00:19:13;19.80;;;12.18;;
70165;SDS011;57541;47.408;18.822;2022-10-18T00:19:45;19.42;;;12.70;;
70165;SDS011;57541;47.408;18.822;2022-10-18T00:20:16;20.83;;;13.18;;
70165;SDS011;57541;47.408;18.822;2022-10-18T00:21:22;21.85;;;12.88;;
70165;SDS011;57541;47.408;18.822;2022-10-18T00:21:49;20.63;;;12.65;;
70165;SDS011;57541;47.408;18.822;2022-10-18T00:22:21;20.67;;;12.32;;
70165;SDS011;57541;47.408;18.822;2022-10-18T00:22:52;22.92;;;12.98;;
70165;SDS011;57541;47.408;18.822;2022-10-18T00:23:24;23.02;;;13.55;;
70165;SDS011;57541;47.408;18.822;2022-10-18T00:23:56;20.80;;;13.02;;
70165;SDS011;57541;47.408;18.822;2022-10-18T00:24:28;22.55;;;13.85;;
70165;SDS011;57541;47.408;18.822;2022-10-18T00:25:00;22.10;;;13.15;;
70165;SDS011;57541;47.408;18.822;2022-10-18T00:25:31;25.95;;;15.48;;
70165;SDS011;57541;47.408;18.822;2022-10-18T00:26:04;21.80;;;13.05;;
70165;SDS011;57541;47.408;18.822;2022-10-18T00:26:44;21.15;;;12.70;;
70165;SDS011;57541;47.408;18.822;2022-10-18T00:27:16;22.83;;;13.15;;
70165;SDS011;57541;47.408;18.822;2022-10-18T00:27:48;22.63;;;13.25;;
70165;SDS011;57541;47.408;18.822;2022-10-18T00:28:19;24.05;;;13.27;;
70165;SDS011;57541;47.408;18.822;2022-10-18T00:28:55;21.55;;;12.65;;
70165;SDS011;57541;47.408;18.822;2022-10-18T00:29:29;22.98;;;13.90;;
70165;SDS011;57541;47.408;18.822;2022-10-18T00:30:01;23.40;;;12.90;;
70165;SDS011;57541;47.408;18.822;2022-10-18T00:30:33;22.83;;;13.40;;
70165;SDS011;57541;47.408;18.822;2022-10-18T00:31:22;22.17;;;12.93;;
70165;SDS011;57541;47.408;18.822;2022-10-18T00:31:54;19.83;;;12.38;;
70165;SDS011;57541;47.408;18.822;2022-10-18T00:32:26;25.00;;;13.18;;
70165;SDS011;57541;47.408;18.822;2022-10-18T00:32:58;21.15;;;12.93;;
70165;SDS011;57541;47.408;18.822;2022-10-18T00:33:29;22.05;;;13.32;;
70165;SDS011;57541;47.408;18.822;2022-10-18T00:34:03;19.70;;;12.90;;
70165;SDS011;57541;47.408;18.822;2022-10-18T00:34:38;20.85;;;13.25;;
70165;SDS011;57541;47.408;18.822;2022-10-18T00:35:10;21.15;;;13.13;;
70165;SDS011;57541;47.408;18.822;2022-10-18T00:35:41;22.55;;;13.38;;
70165;SDS011;57541;47.408;18.822;2022-10-18T00:36:13;23.38;;;13.25;;
70165;SDS011;57541;47.408;18.822;2022-10-18T00:36:45;22.45;;;13.57;;
70165;SDS011;57541;47.408;18.822;2022-10-18T00:37:16;21.55;;;13.40;;
70165;SDS011;57541;47.408;18.822;2022-10-18T00:37:48;22.13;;;12.82;;
70165;SDS011;57541;47.408;18.822;2022-10-18T00:38:20;21.83;;;13.27;;
70165;SDS011;57541;47.408;18.822;2022-10-18T00:38:51;20.23;;;12.63;;
70165;SDS011;57541;47.408;18.822;2022-10-18T00:39:23;21.98;;;13.27;;
70165;SDS011;57541;47.408;18.822;2022-10-18T00:39:55;21.60;;;13.20;;
70165;SDS011;57541;47.408;18.822;2022-10-18T00:40:26;21.23;;;13.15;;
70165;SDS011;57541;47.408;18.822;2022-10-18T00:40:58;20.85;;;13.25;;
70165;SDS011;57541;47.408;18.822;2022-10-18T00:41:30;22.58;;;13.45;;
70165;SDS011;57541;47.408;18.822;2022-10-18T00:42:03;23.63;;;13.52;;
70165;SDS011;57541;47.408;18.822;2022-10-18T00:42:35;19.13;;;12.63;;
70165;SDS011;57541;47.408;18.822;2022-10-18T00:43:09;23.67;;;12.88;;
70165;SDS011;57541;47.408;18.822;2022-10-18T00:43:53;21.58;;;12.80;;
70165;SDS011;57541;47.408;18.822;2022-10-18T00:44:59;19.88;;;12.27;;
70165;SDS011;57541;47.408;18.822;2022-10-18T00:45:31;21.85;;;12.45;;
70165;SDS011;57541;47.408;18.822;2022-10-18T00:46:02;21.00;;;12.70;;
70165;SDS011;57541;47.408;18.822;2022-10-18T00:46:35;24.63;;;12.95;;
70165;SDS011;57541;47.408;18.822;2022-10-18T00:47:09;22.27;;;13.07;;
70165;SDS011;57541;47.408;18.822;2022-10-18T00:47:44;20.73;;;11.95;;
70165;SDS011;57541;47.408;18.822;2022-10-18T00:48:18;19.77;;;12.57;;
70165;SDS011;57541;47.408;18.822;2022-10-18T00:48:51;18.98;;;12.40;;
70165;SDS011;57541;47.408;18.822;2022-10-18T00:49:41;23.73;;;13.13;;
70165;SDS011;57541;47.408;18.822;2022-10-18T00:50:15;22.52;;;12.55;;
70165;SDS011;57541;47.408;18.822;2022-10-18T00:50:49;20.98;;;12.30;;
70165;SDS011;57541;47.408;18.822;2022-10-18T00:51:24;21.15;;;12.88;;
70165;SDS011;57541;47.408;18.822;2022-10-18T00:52:04;22.85;;;13.30;;
70165;SDS011;57541;47.408;18.822;2022-10-18T00:52:49;23.77;;;12.70;;
70165;SDS011;57541;47.408;18.822;2022-10-18T00:53:23;21.42;;;12.07;;
70165;SDS011;57541;47.408;18.822;2022-10-18T00:53:55;20.38;;;12.50;;
70165;SDS011;57541;47.408;18.822;2022-10-18T00:54:27;21.88;;;12.82;;
70165;SDS011;57541;47.408;18.822;2022-10-18T00:55:01;23.58;;;12.93;;
70165;SDS011;57541;47.408;18.822;2022-10-18T00:55:34;22.67;;;12.98;;
70165;SDS011;57541;47.408;18.822;2022-10-18T00:56:06;23.33;;;12.75;;
70165;SDS011;57541;47.408;18.822;2022-10-18T00:56:37;22.67;;;14.02;;
70165;SDS011;57541;47.408;18.822;2022-10-18T00:57:10;25.50;;;13.48;;
70165;SDS011;57541;47.408;18.822;2022-10-18T00:57:42;23.80;;;13.68;;
70165;SDS011;57541;47.408;18.822;2022-10-18T00:58:15;21.83;;;14.05;;
70165;SDS011;57541;47.408;18.822;2022-10-18T00:58:49;24.08;;;13.55;;
70165;SDS011;57541;47.408;18.822;2022-10-18T00:59:21;21.92;;;13.52;;
70165;SDS011;57541;47.408;18.822;2022-10-18T00:59:54;23.92;;;13.43;;
70165;SDS011;57541;47.408;18.822;2022-10-18T01:00:26;23.15;;;13.93;;
70165;SDS011;57541;47.408;18.822;2022-10-18T01:00:57;23.67;;;12.95;;
70165;SDS011;57541;47.408;18.822;2022-10-18T01:01:29;25.27;;;14.23;;
70165;SDS011;57541;47.408;18.822;2022-10-18T01:02:00;22.15;;;12.90;;
70165;SDS011;57541;47.408;18.822;2022-10-18T01:02:33;23.17;;;13.32;;
70165;SDS011;57541;47.408;18.822;2022-10-18T01:03:04;21.73;;;13.32;;
70165;SDS011;57541;47.408;18.822;2022-10-18T01:03:37;22.40;;;13.43;;
70165;SDS011;57541;47.408;18.822;2022-10-18T01:04:10;22.70;;;13.23;;
70165;SDS011;57541;47.408;18.822;2022-10-18T01:04:44;21.63;;;12.60;;
70165;SDS011;57541;47.408;18.822;2022-10-18T01:05:17;22.35;;;13.35;;
70165;SDS011;57541;47.408;18.822;2022-10-18T01:05:49;23.65;;;13.52;;
70165;SDS011;57541;47.408;18.822;2022-10-18T01:06:21;21.73;;;12.50;;
70165;SDS011;57541;47.408;18.822;2022-10-18T01:08:30;21.50;;;13.02;;
70165;SDS011;57541;47.408;18.822;2022-10-18T01:09:12;23.13;;;12.77;;
70165;SDS011;57541;47.408;18.822;2022-10-18T01:10:11;21.08;;;13.18;;
70165;SDS011;57541;47.408;18.822;2022-10-18T01:16:44;20.77;;;11.77;;
70165;SDS011;57541;47.408;18.822;2022-10-18T01:17:25;22.63;;;12.68;;
70165;SDS011;57541;47.408;18.822;2022-10-18T01:23:05;23.65;;;12.95;;
70165;SDS011;57541;47.408;18.822;2022-10-18T01:25:51;20.77;;;12.38;;
70165;SDS011;57541;47.408;18.822;2022-10-18T01:27:26;19.95;;;12.07;;
70165;SDS011;57541;47.408;18.822;2022-10-18T01:31:46;21.48;;;11.52;;
70165;SDS011;57541;47.408;18.822;2022-10-18T01:32:19;23.05;;;12.63;;
70165;SDS011;57541;47.408;18.822;2022-10-18T01:32:57;22.30;;;11.60;;
70165;SDS011;57541;47.408;18.822;2022-10-18T01:33:42;21.13;;;11.90;;
70165;SDS011;57541;47.408;18.822;2022-10-18T01:34:19;21.23;;;11.70;;
70165;SDS011;57541;47.408;18.822;2022-10-18T01:34:51;21.33;;;12.63;;
70165;SDS011;57541;47.408;18.822;2022-10-18T01:35:31;22.80;;;12.63;;
70165;SDS011;57541;47.408;18.822;2022-10-18T01:36:16;24.55;;;12.77;;
70165;SDS011;57541;47.408;18.822;2022-10-18T01:36:52;21.65;;;12.07;;
70165;SDS011;57541;47.408;18.822;2022-10-18T01:37:26;20.77;;;12.20;;
70165;SDS011;57541;47.408;18.822;2022-10-18T01:38:01;20.15;;;11.60;;
70165;SDS011;57541;47.408;18.822;2022-10-18T01:38:36;22.40;;;12.60;;
70165;SDS011;57541;47.408;18.822;2022-10-18T01:39:14;22.73;;;12.75;;
70165;SDS011;57541;47.408;18.822;2022-10-18T01:39:49;21.90;;;12.60;;
70165;SDS011;57541;47.408;18.822;2022-10-18T01:40:24;24.70;;;12.15;;
70165;SDS011;57541;47.408;18.822;2022-10-18T01:40:55;21.95;;;13.18;;
70165;SDS011;57541;47.408;18.822;2022-10-18T01:41:29;21.52;;;13.02;;
70165;SDS011;57541;47.408;18.822;2022-10-18T01:42:01;21.45;;;13.55;;
70165;SDS011;57541;47.408;18.822;2022-10-18T01:42:36;23.42;;;12.45;;
70165;SDS011;57541;47.408;18.822;2022-10-18T01:43:08;20.17;;;12.50;;
70165;SDS011;57541;47.408;18.822;2022-10-18T01:43:42;22.77;;;13.00;;
70165;SDS011;57541;47.408;18.822;2022-10-18T01:44:18;20.83;;;12.63;;
70165;SDS011;57541;47.408;18.822;2022-10-18T01:44:53;22.92;;;12.05;;
70165;SDS011;57541;47.408;18.822;2022-10-18T01:45:25;22.48;;;12.43;;
70165;SDS011;57541;47.408;18.822;2022-10-18T01:45:58;20.27;;;12.02;;
70165;SDS011;57541;47.408;18.822;2022-10-18T01:46:30;20.05;;;12.27;;
70165;SDS011;57541;47.408;18.822;2022-10-18T01:47:03;20.38;;;11.77;;
70165;SDS011;57541;47.408;18.822;2022-10-18T01:47:37;21.77;;;12.43;;
70165;SDS011;57541;47.408;18.822;2022-10-18T01:48:09;20.75;;;12.40;;
70165;SDS011;57541;47.408;18.822;2022-10-18T01:48:42;19.48;;;11.75;;
70165;SDS011;57541;47.408;18.822;2022-10-18T01:49:14;20.20;;;11.65;;
70165;SDS011;57541;47.408;18.822;2022-10-18T01:49:46;21.23;;;12.00;;
70165;SDS011;57541;47.408;18.822;2022-10-18T01:50:26;21.48;;;12.13;;
70165;SDS011;57541;47.408;18.822;2022-10-18T01:51:00;19.95;;;11.90;;
70165;SDS011;57541;47.408;18.822;2022-10-18T01:51:32;21.83;;;12.20;;
70165;SDS011;57541;47.408;18.822;2022-10-18T01:52:04;22.02;;;12.32;;
70165;SDS011;57541;47.408;18.822;2022-10-18T01:52:45;18.52;;;11.05;;
70165;SDS011;57541;47.408;18.822;2022-10-18T01:53:25;19.25;;;11.60;;
70165;SDS011;57541;47.408;18.822;2022-10-18T01:54:05;20.23;;;11.40;;
70165;SDS011;57541;47.408;18.822;2022-10-18T01:54:38;21.25;;;11.77;;
70165;SDS011;57541;47.408;18.822;2022-10-18T01:55:11;18.42;;;11.55;;
70165;SDS011;57541;47.408;18.822;2022-10-18T01:55:43;21.92;;;11.77;;
70165;SDS011;57541;47.408;18.822;2022-10-18T01:58:02;19.25;;;11.65;;
70165;SDS011;57541;47.408;18.822;2022-10-18T01:58:46;19.80;;;12.05;;
70165;SDS011;57541;47.408;18.822;2022-10-18T02:00:05;19.92;;;11.77;;
70165;SDS011;57541;47.408;18.822;2022-10-18T02:01:32;20.23;;;11.68;;
70165;SDS011;57541;47.408;18.822;2022-10-18T02:02:58;18.95;;;10.82;;
70165;SDS011;57541;47.408;18.822;2022-10-18T02:03:35;22.40;;;12.45;;
70165;SDS011;57541;47.408;18.822;2022-10-18T02:05:11;20.58;;;11.63;;
70165;SDS011;57541;47.408;18.822;2022-10-18T02:06:02;20.10;;;11.70;;
70165;SDS011;57541;47.408;18.822;2022-10-18T02:06:41;20.67;;;11.15;;
70165;SDS011;57541;47.408;18.822;2022-10-18T02:07:19;19.35;;;10.93;;
70165;SDS011;57541;47.408;18.822;2022-10-18T02:08:16;19.75;;;11.30;;
70165;SDS011;57541;47.408;18.822;2022-10-18T02:09:12;21.88;;;10.88;;
70165;SDS011;57541;47.408;18.822;2022-10-18T02:10:37;19.77;;;11.25;;
70165;SDS011;57541;47.408;18.822;2022-10-18T02:10:55;20.55;;;11.30;;
70165;SDS011;57541;47.408;18.822;2022-10-18T02:11:28;21.15;;;12.07;;
70165;SDS011;57541;47.408;18.822;2022-10-18T02:12:01;22.20;;;12.07;;
70165;SDS011;57541;47.408;18.822;2022-10-18T02:12:33;21.52;;;13.30;;
70165;SDS011;57541;47.408;18.822;2022-10-18T02:13:07;21.42;;;12.55;;
70165;SDS011;57541;47.408;18.822;2022-10-18T02:13:46;21.75;;;13.30;;
70165;SDS011;57541;47.408;18.822;2022-10-18T02:14:21;23.27;;;13.10;;
70165;SDS011;57541;47.408;18.822;2022-10-18T02:14:55;25.83;;;12.25;;
70165;SDS011;57541;47.408;18.822;2022-10-18T02:15:32;23.05;;;12.85;;
70165;SDS011;57541;47.408;18.822;2022-10-18T02:16:09;20.33;;;11.32;;
70165;SDS011;57541;47.408;18.822;2022-10-18T02:17:28;21.88;;;12.57;;
70165;SDS011;57541;47.408;18.822;2022-10-18T02:18:01;22.25;;;13.05;;
70165;SDS011;57541;47.408;18.822;2022-10-18T02:18:39;20.98;;;11.93;;
70165;SDS011;57541;47.408;18.822;2022-10-18T02:19:15;23.65;;;13.13;;
70165;SDS011;57541;47.408;18.822;2022-10-18T02:19:52;22.58;;;12.00;;
70165;SDS011;57541;47.408;18.822;2022-10-18T02:20:26;20.38;;;12.43;;
70165;SDS011;57541;47.408;18.822;2022-10-18T02:20:59;25.80;;;12.60;;
70165;SDS011;57541;47.408;18.822;2022-10-18T02:21:33;21.75;;;12.25;;
70165;SDS011;57541;47.408;18.822;2022-10-18T02:22:07;22.63;;;13.10;;
70165;SDS011;57541;47.408;18.822;2022-10-18T02:22:40;21.75;;;12.73;;
70165;SDS011;57541;47.408;18.822;2022-10-18T02:23:13;19.30;;;12.25;;
70165;SDS011;57541;47.408;18.822;2022-10-18T02:23:48;21.88;;;12.40;;
70165;SDS011;57541;47.408;18.822;2022-10-18T02:24:20;19.92;;;12.52;;
70165;SDS011;57541;47.408;18.822;2022-10-18T02:24:55;19.38;;;11.77;;
70165;SDS011;57541;47.408;18.822;2022-10-18T02:25:30;21.65;;;12.68;;
70165;SDS011;57541;47.408;18.822;2022-10-18T02:26:03;21.63;;;12.40;;
70165;SDS011;57541;47.408;18.822;2022-10-18T02:26:34;22.17;;;12.68;;
70165;SDS011;57541;47.408;18.822;2022-10-18T02:27:06;21.08;;;11.73;;
70165;SDS011;57541;47.408;18.822;2022-10-18T02:27:38;20.45;;;12.80;;
70165;SDS011;57541;47.408;18.822;2022-10-18T02:28:11;19.58;;;12.15;;
70165;SDS011;57541;47.408;18.822;2022-10-18T02:28:43;21.08;;;12.02;;
70165;SDS011;57541;47.408;18.822;2022-10-18T02:29:15;19.67;;;11.93;;
70165;SDS011;57541;47.408;18.822;2022-10-18T02:29:47;22.00;;;11.95;;
70165;SDS011;57541;47.408;18.822;2022-10-18T02:30:23;22.77;;;11.98;;
70165;SDS011;57541;47.408;18.822;2022-10-18T02:32:56;21.70;;;11.88;;
70165;SDS011;57541;47.408;18.822;2022-10-18T02:33:38;19.90;;;11.30;;
70165;SDS011;57541;47.408;18.822;2022-10-18T02:35:06;18.00;;;11.70;;
70165;SDS011;57541;47.408;18.822;2022-10-18T02:35:43;22.23;;;12.10;;
70165;SDS011;57541;47.408;18.822;2022-10-18T02:36:30;19.65;;;11.82;;
70165;SDS011;57541;47.408;18.822;2022-10-18T02:37:06;21.42;;;11.98;;
70165;SDS011;57541;47.408;18.822;2022-10-18T02:37:40;20.15;;;11.82;;
70165;SDS011;57541;47.408;18.822;2022-10-18T02:38:13;20.33;;;11.57;;
70165;SDS011;57541;47.408;18.822;2022-10-18T02:38:47;21.33;;;11.73;;
70165;SDS011;57541;47.408;18.822;2022-10-18T02:39:27;19.30;;;12.00;;
70165;SDS011;57541;47.408;18.822;2022-10-18T02:40:02;22.23;;;11.48;;
70165;SDS011;57541;47.408;18.822;2022-10-18T02:40:35;19.77;;;11.27;;
70165;SDS011;57541;47.408;18.822;2022-10-18T02:41:06;22.20;;;12.73;;
70165;SDS011;57541;47.408;18.822;2022-10-18T02:41:38;20.77;;;11.98;;
70165;SDS011;57541;47.408;18.822;2022-10-18T02:42:10;22.00;;;12.20;;
70165;SDS011;57541;47.408;18.822;2022-10-18T02:42:48;23.48;;;11.93;;
70165;SDS011;57541;47.408;18.822;2022-10-18T02:43:22;20.02;;;11.88;;
70165;SDS011;57541;47.408;18.822;2022-10-18T02:43:55;18.95;;;11.82;;
70165;SDS011;57541;47.408;18.822;2022-10-18T02:44:26;20.52;;;11.73;;
70165;SDS011;57541;47.408;18.822;2022-10-18T02:44:58;21.00;;;12.05;;
70165;SDS011;57541;47.408;18.822;2022-10-18T02:45:29;22.10;;;12.77;;
70165;SDS011;57541;47.408;18.822;2022-10-18T02:46:01;21.38;;;12.48;;
70165;SDS011;57541;47.408;18.822;2022-10-18T02:46:33;22.17;;;12.45;;
70165;SDS011;57541;47.408;18.822;2022-10-18T02:47:06;19.05;;;11.48;;
70165;SDS011;57541;47.408;18.822;2022-10-18T02:47:40;19.55;;;11.80;;
70165;SDS011;57541;47.408;18.822;2022-10-18T02:48:11;20.95;;;11.88;;
70165;SDS011;57541;47.408;18.822;2022-10-18T02:48:43;20.52;;;12.25;;
70165;SDS011;57541;47.408;18.822;2022-10-18T02:49:14;22.10;;;12.05;;
70165;SDS011;57541;47.408;18.822;2022-10-18T02:49:46;21.92;;;12.65;;
70165;SDS011;57541;47.408;18.822;2022-10-18T02:50:17;21.02;;;12.65;;
70165;SDS011;57541;47.408;18.822;2022-10-18T02:50:49;22.90;;;12.07;;
70165;SDS011;57541;47.408;18.822;2022-10-18T02:51:21;23.45;;;12.25;;
70165;SDS011;57541;47.408;18.822;2022-10-18T02:51:52;20.15;;;12.27;;
70165;SDS011;57541;47.408;18.822;2022-10-18T02:52:24;20.75;;;11.90;;
70165;SDS011;57541;47.408;18.822;2022-10-18T02:52:55;20.65;;;11.77;;
70165;SDS011;57541;47.408;18.822;2022-10-18T02:53:27;23.70;;;12.27;;
70165;SDS011;57541;47.408;18.822;2022-10-18T02:53:58;21.20;;;12.90;;
70165;SDS011;57541;47.408;18.822;2022-10-18T02:54:30;19.75;;;12.10;;
70165;SDS011;57541;47.408;18.822;2022-10-18T02:55:01;25.20;;;12.88;;
70165;SDS011;57541;47.408;18.822;2022-10-18T02:55:33;20.30;;;12.05;;
70165;SDS011;57541;47.408;18.822;2022-10-18T02:56:05;21.63;;;12.27;;
70165;SDS011;57541;47.408;18.822;2022-10-18T02:56:37;22.23;;;12.68;;
70165;SDS011;57541;47.408;18.822;2022-10-18T02:57:08;21.73;;;12.50;;
70165;SDS011;57541;47.408;18.822;2022-10-18T02:57:40;24.23;;;13.05;;
70165;SDS011;57541;47.408;18.822;2022-10-18T02:58:11;20.58;;;11.88;;
70165;SDS011;57541;47.408;18.822;2022-10-18T02:58:44;22.10;;;11.77;;
70165;SDS011;57541;47.408;18.822;2022-10-18T02:59:16;20.17;;;12.27;;
70165;SDS011;57541;47.408;18.822;2022-10-18T02:59:48;21.00;;;12.70;;
70165;SDS011;57541;47.408;18.822;2022-10-18T03:00:19;22.17;;;12.63;;
70165;SDS011;57541;47.408;18.822;2022-10-18T03:00:51;22.30;;;12.07;;
70165;SDS011;57541;47.408;18.822;2022-10-18T03:01:22;21.08;;;12.38;;
70165;SDS011;57541;47.408;18.822;2022-10-18T03:01:54;20.00;;;12.10;;
70165;SDS011;57541;47.408;18.822;2022-10-18T03:02:26;20.00;;;11.85;;
70165;SDS011;57541;47.408;18.822;2022-10-18T03:02:57;19.85;;;12.15;;
70165;SDS011;57541;47.408;18.822;2022-10-18T03:03:29;20.17;;;11.57;;
70165;SDS011;57541;47.408;18.822;2022-10-18T03:04:00;22.42;;;12.68;;
70165;SDS011;57541;47.408;18.822;2022-10-18T03:04:33;18.42;;;11.23;;
70165;SDS011;57541;47.408;18.822;2022-10-18T03:05:04;23.60;;;11.95;;
70165;SDS011;57541;47.408;18.822;2022-10-18T03:05:36;19.17;;;12.02;;
70165;SDS011;57541;47.408;18.822;2022-10-18T03:06:07;21.45;;;12.20;;
70165;SDS011;57541;47.408;18.822;2022-10-18T03:06:39;20.48;;;12.50;;
70165;SDS011;57541;47.408;18.822;2022-10-18T03:07:10;22.02;;;12.25;;
70165;SDS011;57541;47.408;18.822;2022-10-18T03:07:42;22.50;;;13.45;;
70165;SDS011;57541;47.408;18.822;2022-10-18T03:08:13;22.55;;;13.07;;
70165;SDS011;57541;47.408;18.822;2022-10-18T03:08:45;21.42;;;12.10;;
70165;SDS011;57541;47.408;18.822;2022-10-18T03:09:17;23.25;;;12.43;;
70165;SDS011;57541;47.408;18.822;2022-10-18T03:09:48;21.85;;;12.35;;
70165;SDS011;57541;47.408;18.822;2022-10-18T03:10:20;21.00;;;12.48;;
70165;SDS011;57541;47.408;18.822;2022-10-18T03:10:51;20.98;;;12.18;;
70165;SDS011;57541;47.408;18.822;2022-10-18T03:11:23;22.08;;;12.00;;
70165;SDS011;57541;47.408;18.822;2022-10-18T03:11:54;21.13;;;12.50;;
70165;SDS011;57541;47.408;18.822;2022-10-18T03:12:26;22.08;;;12.88;;
70165;SDS011;57541;47.408;18.822;2022-10-18T03:12:58;22.98;;;13.05;;
70165;SDS011;57541;47.408;18.822;2022-10-18T03:13:29;21.08;;;12.38;;
70165;SDS011;57541;47.408;18.822;2022-10-18T03:14:01;20.65;;;12.60;;
70165;SDS011;57541;47.408;18.822;2022-10-18T03:14:32;21.58;;;12.32;;
70165;SDS011;57541;47.408;18.822;2022-10-18T03:15:04;22.65;;;12.18;;
70165;SDS011;57541;47.408;18.822;2022-10-18T03:15:36;22.63;;;11.90;;
70165;SDS011;57541;47.408;18.822;2022-10-18T03:16:07;23.27;;;12.40;;
70165;SDS011;57541;47.408;18.822;2022-10-18T03:16:39;21.40;;;12.38;;
70165;SDS011;57541;47.408;18.822;2022-10-18T03:17:11;22.85;;;12.15;;
70165;SDS011;57541;47.408;18.822;2022-10-18T03:17:42;20.55;;;12.20;;
70165;SDS011;57541;47.408;18.822;2022-10-18T03:18:14;22.52;;;12.40;;
70165;SDS011;57541;47.408;18.822;2022-10-18T03:18:45;21.77;;;12.68;;
70165;SDS011;57541;47.408;18.822;2022-10-18T03:19:17;21.25;;;12.90;;
70165;SDS011;57541;47.408;18.822;2022-10-18T03:19:49;25.23;;;13.95;;
70165;SDS011;57541;47.408;18.822;2022-10-18T03:20:20;27.02;;;14.98;;
70165;SDS011;57541;47.408;18.822;2022-10-18T03:20:52;24.13;;;13.73;;
70165;SDS011;57541;47.408;18.822;2022-10-18T03:21:23;22.75;;;13.40;;
70165;SDS011;57541;47.408;18.822;2022-10-18T03:21:55;21.83;;;13.02;;
70165;SDS011;57541;47.408;18.822;2022-10-18T03:22:26;20.35;;;12.93;;
70165;SDS011;57541;47.408;18.822;2022-10-18T03:22:59;22.70;;;12.35;;
70165;SDS011;57541;47.408;18.822;2022-10-18T03:23:30;21.38;;;12.68;;
70165;SDS011;57541;47.408;18.822;2022-10-18T03:24:02;23.05;;;12.40;;
70165;SDS011;57541;47.408;18.822;2022-10-18T03:24:34;24.40;;;14.38;;
70165;SDS011;57541;47.408;18.822;2022-10-18T03:25:06;27.67;;;17.35;;
70165;SDS011;57541;47.408;18.822;2022-10-18T03:25:37;31.95;;;16.70;;
70165;SDS011;57541;47.408;18.822;2022-10-18T03:26:14;26.77;;;16.20;;
70165;SDS011;57541;47.408;18.822;2022-10-18T03:26:45;23.92;;;13.77;;
70165;SDS011;57541;47.408;18.822;2022-10-18T03:27:17;25.50;;;13.18;;
70165;SDS011;57541;47.408;18.822;2022-10-18T03:27:48;23.98;;;12.93;;
70165;SDS011;57541;47.408;18.822;2022-10-18T03:28:20;20.40;;;12.02;;
70165;SDS011;57541;47.408;18.822;2022-10-18T03:28:52;22.55;;;12.60;;
70165;SDS011;57541;47.408;18.822;2022-10-18T03:29:23;23.05;;;13.05;;
70165;SDS011;57541;47.408;18.822;2022-10-18T03:29:55;21.35;;;12.82;;
70165;SDS011;57541;47.408;18.822;2022-10-18T03:30:26;24.48;;;14.05;;
70165;SDS011;57541;47.408;18.822;2022-10-18T03:31:01;25.25;;;14.63;;
70165;SDS011;57541;47.408;18.822;2022-10-18T03:31:34;23.33;;;13.52;;
70165;SDS011;57541;47.408;18.822;2022-10-18T03:32:06;22.92;;;13.05;;
70165;SDS011;57541;47.408;18.822;2022-10-18T03:32:38;23.85;;;13.38;;
70165;SDS011;57541;47.408;18.822;2022-10-18T03:33:10;21.42;;;12.45;;
70165;SDS011;57541;47.408;18.822;2022-10-18T03:33:42;23.95;;;13.02;;
70165;SDS011;57541;47.408;18.822;2022-10-18T03:34:13;22.45;;;12.52;;
70165;SDS011;57541;47.408;18.822;2022-10-18T03:34:47;21.02;;;13.20;;
70165;SDS011;57541;47.408;18.822;2022-10-18T03:35:18;21.30;;;13.27;;
70165;SDS011;57541;47.408;18.822;2022-10-18T03:35:50;20.73;;;12.23;;
70165;SDS011;57541;47.408;18.822;2022-10-18T03:36:22;20.90;;;12.05;;
70165;SDS011;57541;47.408;18.822;2022-10-18T03:36:53;21.30;;;12.55;;
70165;SDS011;57541;47.408;18.822;2022-10-18T03:37:25;20.85;;;11.85;;
70165;SDS011;57541;47.408;18.822;2022-10-18T03:37:57;22.38;;;12.82;;
70165;SDS011;57541;47.408;18.822;2022-10-18T03:38:28;21.02;;;12.43;;
70165;SDS011;57541;47.408;18.822;2022-10-18T03:39:00;19.38;;;12.00;;
70165;SDS011;57541;47.408;18.822;2022-10-18T03:39:31;21.48;;;11.40;;
70165;SDS011;57541;47.408;18.822;2022-10-18T03:40:03;21.88;;;12.88;;
70165;SDS011;57541;47.408;18.822;2022-10-18T03:40:35;18.88;;;11.88;;
70165;SDS011;57541;47.408;18.822;2022-10-18T03:41:07;19.77;;;11.48;;
70165;SDS011;57541;47.408;18.822;2022-10-18T03:41:38;19.85;;;12.35;;
70165;SDS011;57541;47.408;18.822;2022-10-18T03:42:10;19.58;;;12.18;;
70165;SDS011;57541;47.408;18.822;2022-10-18T03:42:42;23.95;;;13.80;;
70165;SDS011;57541;47.408;18.822;2022-10-18T03:43:13;23.50;;;13.27;;